»·PEaware :: N149CD KBFL-KVNY

N149CD :: KBFL-KVNY

FLIGHT INFORMATION

Flight Status: Arrived
Operator: Privately registered:
United States
More flights under this callsign
Pilot: Nathan E. (30132)
Aircraft: CESSNA 172 SKYHAWK
(C172)
More flights by this aircraft type
Origin: KBFL Meadows
United States
Destination: KVNY Van Nuys
United States
More flights between these airports :: More routes between these airports
Route: +MARIC4 LHS LYNXX8
File this flight plan on PilotEdge
Remarks:
Altitude:
(Current/Filed)
11,000ft
Speed:
(Current/Filed)
110kts
Departed: 31-Aug-20 11:09 AM
Arrived: 31-Aug-20 12:00 PM
Distance/Time
Traveled:
79nm/0:51
Distance/Time
To Go:
Arrived

Flight Plot

Page will automatically refresh every two minutes.


Map Options




Map Legend


Flown Route
Filed Route
Departure Airport
Arrival Airport
Navaid (VOR, NDB)
Fix

Horizontal Profiles

Position Reports

Time Latitude Longitude Heading Altitude Ground
Speed
31-Aug-20 10:48 35.429659 -119.046616 136 495ft 0kts
31-Aug-20 10:49 35.429658 -119.046616 136 495ft 0kts
31-Aug-20 10:50 35.429658 -119.046616 136 495ft 0kts
31-Aug-20 10:51 35.429658 -119.046616 136 495ft 0kts
31-Aug-20 10:52 35.429659 -119.046616 136 495ft 0kts
31-Aug-20 10:53 35.429659 -119.046616 136 495ft 0kts
31-Aug-20 10:54 35.429659 -119.046616 136 495ft 0kts
31-Aug-20 10:55 35.429659 -119.046616 136 495ft 0kts
31-Aug-20 10:56 35.429659 -119.046616 136 495ft 0kts
31-Aug-20 10:57 35.429659 -119.046616 136 495ft 0kts
31-Aug-20 10:58 35.429659 -119.046616 136 495ft 0kts
31-Aug-20 10:59 35.429659 -119.046616 136 495ft 0kts
31-Aug-20 11:00 35.429659 -119.046616 136 495ft 0kts
31-Aug-20 11:01 35.429659 -119.046616 136 495ft 0kts
31-Aug-20 11:02 35.429666 -119.047147 247 494ft 9kts
31-Aug-20 11:03 35.429701 -119.048783 48 491ft 5kts
31-Aug-20 11:04 35.427712 -119.046533 135 486ft 22kts
31-Aug-20 11:05 35.425662 -119.044813 275 479ft 0kts
31-Aug-20 11:06 35.425662 -119.044813 275 479ft 0kts
31-Aug-20 11:07 35.425400 -119.045537 226 477ft 13kts
31-Aug-20 11:08 35.438276 -119.061327 315 881ft 81kts
31-Aug-20 11:09 35.445211 -119.084695 252 1617ft 83kts
31-Aug-20 11:10 35.438427 -119.111800 251 2389ft 83kts
31-Aug-20 11:11 35.425779 -119.134863 212 3022ft 95kts
31-Aug-20 11:12 35.405170 -119.149955 183 3821ft 83kts
31-Aug-20 11:13 35.385043 -119.137926 148 4493ft 81kts
31-Aug-20 11:14 35.364312 -119.124766 150 5142ft 82kts
31-Aug-20 11:15 35.342947 -119.112091 151 5767ft 83kts
31-Aug-20 11:16 35.321069 -119.099470 151 6365ft 85kts
31-Aug-20 11:17 35.298922 -119.086838 151 6928ft 86kts
31-Aug-20 11:18 35.275989 -119.073821 152 7471ft 87kts
31-Aug-20 11:19 35.252541 -119.060539 152 7988ft 88kts
31-Aug-20 11:20 35.229099 -119.047275 152 8469ft 89kts
31-Aug-20 11:21 35.205558 -119.033965 152 8924ft 90kts
31-Aug-20 11:22 35.179194 -119.019084 153 9003ft 114kts
31-Aug-20 11:23 35.150433 -119.002938 153 9007ft 112kts
31-Aug-20 11:24 35.121961 -118.986891 153 9019ft 112kts
31-Aug-20 11:25 35.093654 -118.970931 153 9034ft 112kts
31-Aug-20 11:26 35.065353 -118.954981 153 9054ft 112kts
31-Aug-20 11:27 35.038790 -118.935507 139 9080ft 111kts
31-Aug-20 11:28 35.014791 -118.911647 138 9100ft 111kts
31-Aug-20 11:29 34.991091 -118.887745 137 9119ft 110kts
31-Aug-20 11:30 34.967633 -118.864008 136 9138ft 107kts
31-Aug-20 11:31 34.944398 -118.840477 136 9083ft 108kts
31-Aug-20 11:32 34.921921 -118.817741 135 9102ft 104kts
31-Aug-20 11:33 34.899408 -118.794819 146 9117ft 107kts
31-Aug-20 11:34 34.875875 -118.771122 147 9118ft 111kts
31-Aug-20 11:35 34.852024 -118.747066 147 9115ft 111kts
31-Aug-20 11:36 34.827896 -118.722728 147 9109ft 112kts
31-Aug-20 11:37 34.803529 -118.698167 146 9099ft 114kts
31-Aug-20 11:38 34.779223 -118.673674 146 9086ft 113kts
31-Aug-20 11:39 34.754922 -118.649216 146 9069ft 114kts
31-Aug-20 11:40 34.730553 -118.624701 146 9048ft 113kts
31-Aug-20 11:41 34.706086 -118.600111 146 9029ft 114kts
31-Aug-20 11:42 34.680471 -118.580091 179 9056ft 106kts
31-Aug-20 11:43 34.651340 -118.580492 189 9055ft 104kts
31-Aug-20 11:44 34.623567 -118.583250 190 8660ft 98kts
31-Aug-20 11:45 34.593189 -118.586513 189 7830ft 120kts
31-Aug-20 11:46 34.559877 -118.589976 189 7055ft 112kts
31-Aug-20 11:47 34.529414 -118.593168 189 7049ft 110kts
31-Aug-20 11:48 34.498430 -118.589719 169 6997ft 118kts
31-Aug-20 11:49 34.478411 -118.562301 82 6497ft 128kts
31-Aug-20 11:50 34.471194 -118.522702 139 5996ft 125kts
31-Aug-20 11:51 34.439554 -118.511627 179 5502ft 122kts
31-Aug-20 11:53 34.405527 -118.508722 178 5005ft 122kts
31-Aug-20 11:54 34.371243 -118.505730 177 4415ft 124kts
31-Aug-20 11:55 34.337438 -118.502512 176 3652ft 120kts
31-Aug-20 11:56 34.304647 -118.499395 175 2898ft 116kts
31-Aug-20 11:57 34.272819 -118.496366 175 2167ft 113kts
31-Aug-20 11:58 34.245371 -118.493743 175 1547ft 76kts
31-Aug-20 11:59 34.225369 -118.491817 174 1084ft 68kts
31-Aug-20 12:00 34.210261 -118.490685 223 806ft 18kts
31-Aug-20 12:01 34.207697 -118.491341 175 806ft 17kts
31-Aug-20 12:02 34.206412 -118.492751 335 806ft 0kts

Navigation Log

Ident Type
Flight plan parsing failed, navigation log unavailable